createdAt,value
2018-01-23T00:00:04.156Z,26.33
2018-01-23T00:02:31.612Z,27.40
2018-01-23T00:04:59.074Z,27.13
2018-01-23T00:07:26.520Z,27.90
2018-01-23T00:09:53.972Z,26.43
2018-01-23T00:12:21.416Z,31.67
2018-01-23T00:14:49.632Z,33.80
2018-01-23T00:17:17.093Z,27.00
2018-01-23T00:19:44.548Z,30.80
2018-01-23T00:22:12.824Z,27.10
2018-01-23T00:24:40.275Z,28.70
2018-01-23T00:27:07.735Z,24.23
2018-01-23T00:29:35.188Z,28.50
2018-01-23T00:32:02.654Z,25.83
2018-01-23T00:34:30.100Z,24.27
2018-01-23T00:36:57.560Z,26.83
2018-01-23T00:39:25.016Z,24.93
2018-01-23T00:41:52.480Z,27.33
2018-01-23T00:44:19.932Z,23.97
2018-01-23T00:46:47.384Z,19.47
2018-01-23T00:49:14.832Z,31.63
2018-01-23T00:51:42.279Z,26.20
2018-01-23T00:54:09.740Z,24.40
2018-01-23T00:56:37.187Z,21.83
2018-01-23T00:59:04.641Z,20.40
2018-01-23T01:01:32.099Z,25.43
2018-01-23T01:03:59.557Z,25.10
2018-01-23T01:06:26.995Z,22.23
2018-01-23T01:08:55.204Z,20.30
2018-01-23T01:11:22.653Z,24.77
2018-01-23T01:13:50.095Z,21.10
2018-01-23T01:16:17.553Z,22.27
2018-01-23T01:18:44.999Z,21.10
2018-01-23T01:21:12.447Z,20.40
2018-01-23T01:23:40.668Z,20.80
2018-01-23T01:26:08.129Z,22.83
2018-01-23T01:28:35.571Z,27.27
2018-01-23T01:31:03.030Z,25.63
2018-01-23T01:33:30.475Z,27.97
2018-01-23T01:35:57.928Z,21.17
2018-01-23T01:38:25.380Z,27.43
2018-01-23T01:40:52.837Z,29.30
2018-01-23T01:43:20.297Z,31.60
2018-01-23T01:45:47.750Z,35.87
2018-01-23T01:48:15.209Z,32.03
2018-01-23T01:50:42.660Z,34.27
2018-01-23T01:53:10.104Z,34.20
2018-01-23T01:55:37.564Z,36.50
2018-01-23T01:58:05.007Z,32.10
2018-01-23T02:00:33.215Z,30.77
2018-01-23T02:03:00.669Z,31.97
2018-01-23T02:05:28.120Z,32.97
2018-01-23T02:07:55.576Z,35.80
2018-01-23T02:10:23.028Z,34.73
2018-01-23T02:12:50.492Z,29.47
2018-01-23T02:15:17.943Z,39.07
2018-01-23T02:17:45.403Z,29.03
2018-01-23T02:20:12.860Z,25.63
2018-01-23T02:22:40.320Z,29.87
2018-01-23T02:25:07.771Z,29.97
2018-01-23T02:27:35.234Z,25.60
2018-01-23T02:30:02.684Z,28.10
2018-01-23T02:32:30.148Z,27.27
2018-01-23T02:34:57.600Z,23.87
2018-01-23T02:37:25.055Z,24.73
2018-01-23T02:39:52.505Z,30.43
2018-01-23T02:42:19.960Z,25.07
2018-01-23T02:44:47.409Z,23.03
2018-01-23T02:47:14.860Z,26.67
2018-01-23T02:49:42.312Z,26.40
2018-01-23T02:52:10.523Z,27.33
2018-01-23T02:54:37.984Z,23.27
2018-01-23T02:57:05.441Z,21.03
2018-01-23T02:59:32.884Z,24.37
2018-01-23T03:02:00.335Z,23.67
2018-01-23T03:04:27.783Z,25.40
2018-01-23T03:06:55.231Z,24.03
2018-01-23T03:09:22.688Z,23.33
2018-01-23T03:11:50.132Z,23.80
2018-01-23T03:14:18.334Z,27.83
2018-01-23T03:16:45.784Z,25.27
2018-01-23T03:19:13.240Z,24.53
2018-01-23T03:21:40.692Z,29.27
2018-01-23T03:24:08.139Z,24.27
2018-01-23T03:26:35.591Z,22.40
2018-01-23T03:29:03.039Z,33.47
2018-01-23T03:31:31.251Z,22.27
2018-01-23T03:33:58.700Z,21.77
2018-01-23T03:36:26.153Z,24.47
2018-01-23T03:38:53.608Z,22.90
2018-01-23T03:41:21.091Z,17.23
2018-01-23T03:43:48.540Z,20.33
2018-01-23T03:46:15.992Z,17.63
2018-01-23T03:48:43.461Z,26.57
2018-01-23T03:51:10.911Z,17.63
2018-01-23T03:53:38.364Z,24.00
2018-01-23T03:56:05.812Z,20.30
2018-01-23T03:58:33.268Z,23.27
2018-01-23T04:01:00.716Z,20.43
2018-01-23T04:03:28.176Z,21.80
2018-01-23T04:05:55.621Z,14.07
2018-01-23T04:08:23.076Z,25.87
2018-01-23T04:10:50.569Z,17.37
2018-01-23T04:13:18.743Z,18.50
2018-01-23T04:15:46.180Z,15.57
2018-01-23T04:18:13.641Z,23.03
2018-01-23T04:20:41.087Z,21.87
2018-01-23T04:23:08.539Z,17.20
2018-01-23T04:25:35.990Z,16.23
2018-01-23T04:28:03.451Z,19.70
2018-01-23T04:30:30.896Z,18.83
2018-01-23T04:32:58.343Z,21.27
2018-01-23T04:35:25.785Z,19.77
2018-01-23T04:37:53.995Z,17.07
2018-01-23T04:40:21.454Z,16.50
2018-01-23T04:42:48.904Z,16.57
2018-01-23T04:45:16.354Z,15.63
2018-01-23T04:47:43.796Z,16.07
2018-01-23T04:50:12.005Z,19.07
2018-01-23T04:52:39.448Z,21.77
2018-01-23T04:55:06.898Z,15.00
2018-01-23T04:57:34.344Z,14.73
2018-01-23T05:00:01.787Z,23.60
2018-01-23T05:02:30.009Z,19.07
2018-01-23T05:04:57.473Z,20.73
2018-01-23T05:07:24.927Z,18.33
2018-01-23T05:09:52.380Z,19.63
2018-01-23T05:12:19.836Z,18.73
2018-01-23T05:14:47.357Z,18.77
2018-01-23T05:17:14.818Z,16.80
2018-01-23T05:19:42.259Z,21.47
2018-01-23T05:22:10.478Z,15.83
2018-01-23T05:24:37.933Z,19.43
2018-01-23T05:27:05.379Z,20.07
2018-01-23T05:29:32.828Z,16.27
2018-01-23T05:32:00.286Z,16.73
2018-01-23T05:34:27.737Z,15.53
2018-01-23T05:36:55.179Z,14.97
2018-01-23T05:39:22.628Z,16.70
2018-01-23T05:41:50.848Z,16.53
2018-01-23T05:44:18.299Z,15.53
2018-01-23T05:46:45.756Z,17.67
2018-01-23T05:49:13.225Z,15.57
2018-01-23T05:51:40.667Z,14.33
2018-01-23T05:54:08.124Z,15.20
2018-01-23T05:56:35.579Z,15.50
2018-01-23T05:59:03.035Z,18.60
2018-01-23T06:01:30.493Z,14.30
2018-01-23T06:03:57.950Z,22.07
2018-01-23T06:06:25.395Z,18.57
2018-01-23T06:08:52.841Z,23.63
2018-01-23T06:11:20.287Z,19.93
2018-01-23T06:13:47.732Z,20.07
2018-01-23T06:16:15.952Z,23.63
2018-01-23T06:18:43.407Z,16.93
2018-01-23T06:21:10.860Z,20.77
2018-01-23T06:23:38.320Z,15.43
2018-01-23T06:26:05.772Z,22.37
2018-01-23T06:28:33.983Z,18.63
2018-01-23T06:31:01.445Z,18.13
2018-01-23T06:33:28.889Z,20.83
2018-01-23T06:35:56.336Z,21.60
2018-01-23T06:38:23.792Z,18.23
2018-01-23T06:40:51.236Z,17.20
2018-01-23T06:43:18.683Z,13.23
2018-01-23T06:45:46.157Z,21.57
2018-01-23T06:48:13.604Z,19.43
2018-01-23T06:50:41.047Z,14.80
2018-01-23T06:53:08.507Z,16.90
2018-01-23T06:55:35.957Z,21.97
2018-01-23T06:58:03.412Z,16.63
2018-01-23T07:00:30.867Z,16.80
2018-01-23T07:02:58.323Z,15.13
2018-01-23T07:05:25.784Z,20.23
2018-01-23T07:07:53.236Z,21.30
2018-01-23T07:10:20.691Z,18.87
2018-01-23T07:12:48.148Z,21.20
2018-01-23T07:15:15.611Z,23.17
2018-01-23T07:17:43.060Z,31.17
2018-01-23T07:20:10.520Z,20.83
2018-01-23T07:22:37.981Z,18.30
2018-01-23T07:25:05.437Z,20.00
2018-01-23T07:27:32.884Z,17.93
2018-01-23T07:30:00.342Z,17.10
2018-01-23T07:32:27.788Z,12.37
2018-01-23T07:34:55.253Z,11.80
2018-01-23T07:37:22.707Z,19.43
2018-01-23T07:39:50.167Z,16.73
2018-01-23T07:42:17.620Z,16.33
2018-01-23T07:44:45.084Z,15.83
2018-01-23T07:47:12.536Z,13.23
2018-01-23T07:49:39.992Z,21.00
2018-01-23T07:52:07.448Z,16.70
2018-01-23T07:54:34.900Z,18.20
2018-01-23T07:57:02.354Z,16.30
2018-01-23T07:59:29.833Z,16.03
2018-01-23T08:01:57.285Z,15.43
2018-01-23T08:04:24.735Z,17.23
2018-01-23T08:06:52.186Z,19.03
2018-01-23T08:09:19.634Z,21.98
2018-01-23T08:11:47.080Z,14.17
2018-01-23T08:14:14.533Z,14.23
2018-01-23T08:16:41.998Z,15.57
2018-01-23T08:19:09.436Z,14.27
2018-01-23T08:21:37.653Z,11.07
2018-01-23T08:24:05.097Z,14.57
2018-01-23T08:26:32.548Z,18.67
2018-01-23T08:28:59.999Z,14.00
2018-01-23T08:31:27.440Z,15.17
2018-01-23T08:33:55.675Z,19.40
2018-01-23T08:36:23.119Z,15.97
2018-01-23T08:38:50.568Z,18.33
2018-01-23T08:41:18.168Z,19.57
2018-01-23T08:43:46.375Z,12.27
2018-01-23T08:46:13.831Z,18.17
2018-01-23T08:48:41.280Z,18.13
2018-01-23T08:51:08.727Z,17.00
2018-01-23T08:53:36.172Z,20.20
2018-01-23T08:56:04.418Z,16.67
2018-01-23T08:58:31.859Z,12.40
2018-01-23T09:00:59.312Z,22.23
2018-01-23T09:03:26.789Z,21.70
2018-01-23T09:05:54.207Z,18.30
2018-01-23T09:08:21.653Z,18.23
2018-01-23T09:10:49.096Z,17.33
2018-01-23T09:13:16.546Z,16.07
2018-01-23T09:15:44.764Z,19.53
2018-01-23T09:18:12.224Z,14.30
2018-01-23T09:20:39.677Z,15.70
2018-01-23T09:23:07.895Z,20.40
2018-01-23T09:25:36.108Z,19.60
2018-01-23T09:28:03.561Z,15.90
2018-01-23T09:30:31.021Z,21.30
2018-01-23T09:32:58.465Z,21.57
2018-01-23T09:35:25.946Z,18.10
2018-01-23T09:37:53.388Z,17.43
2018-01-23T09:40:20.848Z,17.97
2018-01-23T09:42:48.295Z,18.70
2018-01-23T09:45:15.784Z,13.03
2018-01-23T09:47:43.235Z,17.87
2018-01-23T09:50:10.688Z,16.20
2018-01-23T09:52:38.140Z,20.97
2018-01-23T09:55:05.595Z,17.37
2018-01-23T09:57:33.043Z,17.20
2018-01-23T10:00:00.496Z,16.83
2018-01-23T10:02:27.945Z,16.30
2018-01-23T10:04:55.394Z,13.73
2018-01-23T10:07:22.844Z,16.77
2018-01-23T10:09:50.289Z,15.47
2018-01-23T10:12:18.516Z,17.97
2018-01-23T10:14:45.962Z,15.60
2018-01-23T10:17:13.420Z,16.30
2018-01-23T10:19:40.865Z,15.07
2018-01-23T10:22:08.328Z,13.13
2018-01-23T10:24:35.771Z,16.93
2018-01-23T10:27:03.231Z,18.07
2018-01-23T10:29:30.679Z,16.00
2018-01-23T10:31:58.141Z,11.87
2018-01-23T10:34:25.588Z,11.73
2018-01-23T10:36:53.055Z,13.00
2018-01-23T10:39:20.508Z,14.40
2018-01-23T10:41:47.958Z,16.20
2018-01-23T10:44:15.410Z,13.67
2018-01-23T10:46:42.859Z,15.80
2018-01-23T10:49:11.950Z,14.67
2018-01-23T10:51:40.162Z,15.83
2018-01-23T10:54:07.610Z,11.17
2018-01-23T10:56:35.060Z,16.33
2018-01-23T10:59:02.612Z,13.60
2018-01-23T11:01:35.853Z,14.47
2018-01-23T11:04:03.308Z,16.03
2018-01-23T11:06:30.756Z,12.50
2018-01-23T11:08:58.200Z,11.10
2018-01-23T11:11:25.639Z,13.63
2018-01-23T11:13:53.088Z,14.53
2018-01-23T11:16:20.527Z,17.10
2018-01-23T11:18:47.981Z,17.33
2018-01-23T11:21:15.438Z,13.23
2018-01-23T11:23:42.896Z,17.63
2018-01-23T11:26:10.350Z,16.13
2018-01-23T11:28:38.572Z,22.17
2018-01-23T11:31:06.019Z,14.87
2018-01-23T11:33:33.476Z,17.37
2018-01-23T11:36:00.921Z,14.53
2018-01-23T11:38:28.371Z,15.70
2018-01-23T11:40:55.830Z,14.10
2018-01-23T11:43:23.267Z,14.30
2018-01-23T11:45:50.716Z,14.37
2018-01-23T11:48:18.948Z,15.97
2018-01-23T11:50:46.392Z,19.17
2018-01-23T11:53:13.839Z,13.43
2018-01-23T11:55:41.288Z,26.10
2018-01-23T11:58:08.744Z,21.17
2018-01-23T12:00:36.196Z,18.30
2018-01-23T12:03:03.684Z,13.17
2018-01-23T12:05:31.139Z,14.13
2018-01-23T12:07:58.583Z,13.77
2018-01-23T12:10:26.041Z,14.77
2018-01-23T12:12:53.487Z,9.67
2018-01-23T12:15:20.944Z,16.20
2018-01-23T12:17:48.387Z,14.73
2018-01-23T12:20:15.839Z,11.33
2018-01-23T12:22:43.296Z,11.00
2018-01-23T12:25:10.756Z,11.10
2018-01-23T12:27:38.197Z,17.00
2018-01-23T12:30:05.639Z,15.27
2018-01-23T12:32:33.855Z,15.37
2018-01-23T12:35:02.213Z,14.53
2018-01-23T12:37:29.655Z,15.50
2018-01-23T12:39:57.108Z,11.73
2018-01-23T12:42:25.329Z,13.53
2018-01-23T12:44:52.796Z,10.63
2018-01-23T12:47:20.243Z,16.13
2018-01-23T12:49:47.695Z,13.83
2018-01-23T12:52:15.144Z,14.47
2018-01-23T12:54:42.591Z,12.03
2018-01-23T12:57:10.056Z,13.43
2018-01-23T12:59:37.528Z,15.53
2018-01-23T13:02:04.973Z,11.37
2018-01-23T13:04:32.420Z,11.97
2018-01-23T13:06:59.883Z,12.53
2018-01-23T13:09:27.325Z,11.23
2018-01-23T13:11:54.775Z,10.20
2018-01-23T13:14:22.985Z,13.33
2018-01-23T13:16:50.431Z,14.53
2018-01-23T13:19:18.639Z,14.03
2018-01-23T13:21:46.092Z,11.87
2018-01-23T13:24:13.532Z,10.87
2018-01-23T13:26:42.723Z,12.67
2018-01-23T13:29:10.167Z,12.00
2018-01-23T13:31:37.611Z,16.00
2018-01-23T13:34:05.059Z,12.33
2018-01-23T13:36:32.512Z,13.37
2018-01-23T13:38:59.967Z,12.00
2018-01-23T13:41:27.420Z,17.27
2018-01-23T13:43:54.868Z,16.80
2018-01-23T13:46:22.316Z,12.63
2018-01-23T13:48:50.528Z,11.67
2018-01-23T13:51:17.976Z,15.10
2018-01-23T13:53:45.437Z,17.03
2018-01-23T13:56:13.197Z,16.53
2018-01-23T13:58:40.651Z,14.50
2018-01-23T14:01:08.096Z,15.60
2018-01-23T14:03:35.562Z,15.70
2018-01-23T14:06:02.992Z,13.57
2018-01-23T14:08:31.203Z,18.03
2018-01-23T14:10:58.653Z,13.17
2018-01-23T14:13:26.104Z,17.47
2018-01-23T14:15:53.547Z,17.00
2018-01-23T14:18:21.000Z,15.50
2018-01-23T14:20:48.461Z,15.80
2018-01-23T14:23:15.913Z,19.80
2018-01-23T14:25:43.371Z,16.50
2018-01-23T14:28:10.824Z,12.80
2018-01-23T14:30:38.271Z,16.80
2018-01-23T14:33:06.495Z,12.53
2018-01-23T14:35:33.980Z,23.07
2018-01-23T14:38:01.423Z,14.67
2018-01-23T14:40:28.875Z,17.03
2018-01-23T14:42:56.319Z,16.30
2018-01-23T14:45:23.770Z,14.63
2018-01-23T14:47:51.992Z,18.40
2018-01-23T14:50:20.208Z,18.77
2018-01-23T14:52:47.659Z,14.87
2018-01-23T14:55:15.194Z,17.03
2018-01-23T14:57:43.405Z,17.33
2018-01-23T15:00:10.853Z,14.93
2018-01-23T15:02:38.301Z,17.33
2018-01-23T15:05:05.738Z,20.90
2018-01-23T15:07:33.191Z,15.60
2018-01-23T15:10:01.409Z,16.13
2018-01-23T15:12:28.851Z,16.30
2018-01-23T15:14:56.297Z,14.57
2018-01-23T15:17:25.158Z,15.87
2018-01-23T15:19:54.548Z,13.17
2018-01-23T15:22:22.774Z,21.00
2018-01-23T15:24:50.216Z,17.40
2018-01-23T15:27:17.691Z,19.60
2018-01-23T15:29:45.148Z,20.57
2018-01-23T15:32:12.595Z,20.30
2018-01-23T15:34:40.047Z,21.13
2018-01-23T15:37:07.493Z,26.97
2018-01-23T15:39:34.939Z,20.07
2018-01-23T15:42:02.445Z,19.97
2018-01-23T15:44:29.895Z,22.90
2018-01-23T15:46:57.362Z,23.80
2018-01-23T15:49:24.806Z,24.43
2018-01-23T15:51:52.261Z,22.60
2018-01-23T15:54:19.708Z,20.40
2018-01-23T15:56:47.165Z,18.13
2018-01-23T15:59:14.607Z,19.80
2018-01-23T16:01:42.062Z,18.03
2018-01-23T16:04:09.520Z,18.90
2018-01-23T16:06:37.074Z,20.60
2018-01-23T16:09:04.526Z,12.43
2018-01-23T16:11:31.975Z,15.17
2018-01-23T16:13:59.420Z,16.73
2018-01-23T16:16:27.644Z,17.27
2018-01-23T16:18:55.917Z,19.10
2018-01-23T16:21:23.381Z,13.10
2018-01-23T16:23:51.307Z,13.90
2018-01-23T16:26:18.788Z,22.93
2018-01-23T16:28:46.239Z,17.67
2018-01-23T16:31:13.688Z,15.73
2018-01-23T16:33:41.131Z,13.17
2018-01-23T16:36:08.597Z,17.80
2018-01-23T16:38:36.157Z,14.07
2018-01-23T16:41:03.600Z,16.40
2018-01-23T16:43:31.162Z,14.43
2018-01-23T16:45:59.364Z,20.30
2018-01-23T16:48:26.808Z,21.63
2018-01-23T16:50:54.251Z,15.70
2018-01-23T16:53:21.700Z,19.27
2018-01-23T16:55:49.138Z,15.60
2018-01-23T16:58:17.357Z,16.73
2018-01-23T17:00:44.807Z,23.83
2018-01-23T17:03:12.264Z,26.23
2018-01-23T17:05:39.716Z,21.00
2018-01-23T17:08:08.004Z,21.77
2018-01-23T17:10:35.448Z,23.00
2018-01-23T17:13:02.916Z,16.77
2018-01-23T17:15:30.364Z,19.33
2018-01-23T17:17:57.823Z,26.43
2018-01-23T17:20:25.269Z,25.03
2018-01-23T17:22:52.724Z,18.10
2018-01-23T17:25:20.177Z,20.70
2018-01-23T17:27:47.628Z,24.67
2018-01-23T17:30:15.093Z,17.97
2018-01-23T17:32:42.554Z,20.63
2018-01-23T17:35:10.000Z,18.80
2018-01-23T17:37:37.455Z,24.17
2018-01-23T17:40:04.899Z,18.80
2018-01-23T17:42:33.176Z,19.50
2018-01-23T17:45:01.393Z,19.27
2018-01-23T17:47:28.848Z,17.70
2018-01-23T17:49:56.292Z,23.23
2018-01-23T17:52:23.748Z,17.60
2018-01-23T17:54:51.239Z,23.67
2018-01-23T17:57:18.700Z,16.90
2018-01-23T17:59:46.148Z,21.83
2018-01-23T18:02:13.603Z,19.53
2018-01-23T18:04:41.091Z,14.87
2018-01-23T18:07:08.544Z,19.83
2018-01-23T18:09:36.786Z,25.03
2018-01-23T18:12:04.266Z,19.60
2018-01-23T18:14:32.504Z,26.23
2018-01-23T18:17:00.016Z,23.80
2018-01-23T18:19:28.266Z,23.60
2018-01-23T18:21:55.715Z,20.43
2018-01-23T18:24:23.157Z,22.90
2018-01-23T18:26:50.612Z,21.57
2018-01-23T18:29:18.106Z,30.60
2018-01-23T18:31:45.619Z,23.57
2018-01-23T18:34:13.056Z,22.63
2018-01-23T18:36:40.547Z,19.93
2018-01-23T18:39:08.028Z,19.77
2018-01-23T18:41:35.486Z,18.10
2018-01-23T18:44:03.487Z,22.17
2018-01-23T18:46:30.993Z,24.00
2018-01-23T18:48:58.475Z,20.23
2018-01-23T18:51:26.697Z,23.33
2018-01-23T18:53:54.207Z,27.73
2018-01-23T18:56:21.662Z,24.50
2018-01-23T18:58:49.879Z,26.27
2018-01-23T19:01:17.345Z,18.93
2018-01-23T19:03:45.880Z,22.30
2018-01-23T19:06:14.096Z,17.13
2018-01-23T19:08:41.594Z,20.93
2018-01-23T19:11:09.139Z,21.47
2018-01-23T19:13:36.608Z,20.10
2018-01-23T19:16:04.070Z,18.13
2018-01-23T19:18:31.578Z,21.67
2018-01-23T19:20:59.104Z,23.17
2018-01-23T19:23:27.311Z,16.73
2018-01-23T19:25:54.820Z,14.23
2018-01-23T19:28:22.313Z,20.77
2018-01-23T19:30:49.758Z,17.03
2018-01-23T19:33:17.291Z,14.13
2018-01-23T19:35:44.741Z,16.33
2018-01-23T19:38:12.269Z,17.43
2018-01-23T19:40:39.756Z,17.20
2018-01-23T19:43:07.291Z,21.00
2018-01-23T19:45:34.792Z,17.07
2018-01-23T19:48:03.002Z,18.90
2018-01-23T19:50:30.456Z,19.33
2018-01-23T19:52:57.917Z,20.33
2018-01-23T19:55:25.396Z,21.03
2018-01-23T19:57:52.899Z,21.77
2018-01-23T20:00:21.171Z,19.43
2018-01-23T20:02:49.385Z,19.97
2018-01-23T20:05:16.898Z,18.57
2018-01-23T20:07:45.107Z,15.80
2018-01-23T20:10:12.580Z,22.20
2018-01-23T20:12:40.041Z,21.07
2018-01-23T20:15:07.574Z,11.57
2018-01-23T20:17:35.067Z,15.37
2018-01-23T20:20:02.516Z,10.87
2018-01-23T20:22:29.967Z,16.90
2018-01-23T20:24:57.423Z,16.27
2018-01-23T20:27:25.059Z,17.03
2018-01-23T20:29:52.555Z,13.53
2018-01-23T20:32:20.001Z,14.47
2018-01-23T20:34:47.678Z,16.73
2018-01-23T20:37:15.988Z,16.70
2018-01-23T20:39:44.212Z,17.73
2018-01-23T20:42:11.732Z,17.83
2018-01-23T20:44:39.179Z,18.77
2018-01-23T20:47:07.400Z,18.53
2018-01-23T20:49:35.672Z,14.77
2018-01-23T20:52:03.159Z,11.87
2018-01-23T20:54:30.647Z,13.47
2018-01-23T20:56:58.862Z,14.77
2018-01-23T20:59:26.319Z,17.37
2018-01-23T21:01:53.766Z,10.77
2018-01-23T21:04:21.210Z,13.73
2018-01-23T21:06:49.587Z,16.77
2018-01-23T21:09:17.091Z,15.00
2018-01-23T21:11:44.587Z,17.07
2018-01-23T21:14:12.091Z,24.57
2018-01-23T21:16:39.595Z,20.47
2018-01-23T21:19:07.052Z,18.07
2018-01-23T21:21:34.508Z,16.97
2018-01-23T21:24:02.781Z,10.30
2018-01-23T21:26:31.065Z,12.10
2018-01-23T21:28:58.520Z,12.23
2018-01-23T21:31:25.976Z,10.33
2018-01-23T21:33:53.439Z,9.10
2018-01-23T21:36:20.879Z,11.23
2018-01-23T21:38:49.146Z,10.40
2018-01-23T21:41:17.359Z,15.20
2018-01-23T21:43:45.800Z,10.70
2018-01-23T21:46:14.019Z,9.20
2018-01-23T21:48:41.591Z,16.27
2018-01-23T21:51:09.032Z,10.47
2018-01-23T21:53:36.534Z,14.00
2018-01-23T21:56:03.980Z,19.47
2018-01-23T21:58:31.475Z,10.93
2018-01-23T22:00:58.980Z,9.40
2018-01-23T22:03:26.464Z,11.10
2018-01-23T22:05:53.945Z,12.13
2018-01-23T22:08:22.192Z,11.40
2018-01-23T22:10:49.639Z,9.53
2018-01-23T22:13:17.087Z,12.70
2018-01-23T22:15:44.532Z,9.13
2018-01-23T22:18:11.979Z,12.73
2018-01-23T22:20:39.428Z,10.60
2018-01-23T22:23:06.881Z,9.47
2018-01-23T22:25:34.366Z,9.83
2018-01-23T22:28:01.815Z,11.50
2018-01-23T22:30:29.274Z,10.17
2018-01-23T22:32:56.727Z,9.57
2018-01-23T22:35:24.227Z,8.30
2018-01-23T22:37:52.436Z,7.37
2018-01-23T22:40:19.935Z,9.23
2018-01-23T22:42:47.424Z,8.63
2018-01-23T22:45:15.631Z,9.57
2018-01-23T22:47:43.075Z,9.37
2018-01-23T22:50:10.532Z,10.10
2018-01-23T22:52:37.976Z,10.83
2018-01-23T22:55:05.436Z,8.93
2018-01-23T22:57:32.925Z,8.00
2018-01-23T23:00:00.371Z,12.10
2018-01-23T23:02:27.815Z,8.67
2018-01-23T23:04:55.278Z,12.90
2018-01-23T23:07:22.724Z,12.43
2018-01-23T23:09:50.181Z,11.77
2018-01-23T23:12:17.627Z,13.13
2018-01-23T23:14:45.078Z,13.83
2018-01-23T23:17:12.532Z,15.00
2018-01-23T23:19:39.982Z,17.27
2018-01-23T23:22:08.204Z,16.20
2018-01-23T23:24:35.651Z,17.30
2018-01-23T23:27:03.117Z,15.23
2018-01-23T23:29:30.584Z,11.43
2018-01-23T23:31:58.038Z,12.10
2018-01-23T23:34:25.478Z,10.03
2018-01-23T23:36:52.936Z,9.63
2018-01-23T23:39:20.386Z,11.33
2018-01-23T23:41:47.835Z,12.33
2018-01-23T23:44:15.283Z,11.17
2018-01-23T23:46:42.745Z,10.50
2018-01-23T23:49:10.219Z,12.53
2018-01-23T23:51:37.676Z,11.53
2018-01-23T23:54:05.123Z,11.20
2018-01-23T23:56:32.588Z,9.43
2018-01-23T23:59:00.044Z,10.97
